createdAt,value
2022-11-14T00:01:23.676Z,60.83
2022-11-14T00:03:52.764Z,60.84
2022-11-14T00:06:20.816Z,60.79
2022-11-14T00:08:48.486Z,60.86
2022-11-14T00:11:16.479Z,60.85
2022-11-14T00:13:44.177Z,60.86
2022-11-14T00:16:11.760Z,60.79
2022-11-14T00:18:39.385Z,60.86
2022-11-14T00:21:08.383Z,60.76
2022-11-14T00:23:35.980Z,60.99
2022-11-14T00:26:03.540Z,61.01
2022-11-14T00:28:31.394Z,60.91
2022-11-14T00:30:59.180Z,61.09
2022-11-14T00:33:26.732Z,61.10
2022-11-14T00:35:54.511Z,61.09
2022-11-14T00:38:23.688Z,61.16
2022-11-14T00:40:51.353Z,61.07
2022-11-14T00:43:18.959Z,61.30
2022-11-14T00:45:46.572Z,60.99
2022-11-14T00:48:14.248Z,61.03
2022-11-14T00:50:41.868Z,61.05
2022-11-14T00:53:09.429Z,61.18
2022-11-14T00:55:38.592Z,61.04
2022-11-14T00:58:06.324Z,61.10
2022-11-14T01:00:33.989Z,61.08
2022-11-14T01:03:01.676Z,61.19
2022-11-14T01:05:29.256Z,61.09
2022-11-14T01:07:56.858Z,61.08
2022-11-14T01:10:24.531Z,61.11
2022-11-14T01:12:53.528Z,61.11
2022-11-14T01:15:21.094Z,61.05
2022-11-14T01:17:48.684Z,61.19
2022-11-14T01:20:16.744Z,61.18
2022-11-14T01:22:44.319Z,61.03
2022-11-14T01:25:11.887Z,61.16
2022-11-14T01:27:39.514Z,61.02
2022-11-14T01:30:09.752Z,61.06
2022-11-14T01:32:37.326Z,61.17
2022-11-14T01:35:05.213Z,61.08
2022-11-14T01:37:32.789Z,61.12
2022-11-14T01:40:00.368Z,61.45
2022-11-14T01:42:27.993Z,61.09
2022-11-14T01:44:55.551Z,61.19
2022-11-14T01:47:26.757Z,61.08
2022-11-14T01:49:55.695Z,61.13
2022-11-14T01:52:24.193Z,61.18
2022-11-14T01:54:53.232Z,61.52
2022-11-14T01:57:22.823Z,61.34
2022-11-14T01:59:52.788Z,61.46
2022-11-14T02:02:21.411Z,61.57
2022-11-14T02:04:52.376Z,61.49
2022-11-14T02:07:20.104Z,61.63
2022-11-14T02:09:48.318Z,61.62
2022-11-14T02:12:17.354Z,61.73
2022-11-14T02:14:46.737Z,61.63
2022-11-14T02:17:29.089Z,61.66
2022-11-14T02:20:06.806Z,61.69
2022-11-14T02:22:34.607Z,61.79
2022-11-14T02:25:02.224Z,61.57
2022-11-14T02:27:30.040Z,61.75
2022-11-14T02:30:04.918Z,61.77
2022-11-14T02:32:45.096Z,61.98
2022-11-14T02:35:21.491Z,61.96
2022-11-14T02:37:49.159Z,61.64
2022-11-14T02:40:16.748Z,61.94
2022-11-14T02:42:44.336Z,61.92
2022-11-14T02:45:11.941Z,61.93
2022-11-14T02:47:39.532Z,61.95
2022-11-14T02:50:07.504Z,61.93
2022-11-14T02:52:36.390Z,62.09
2022-11-14T02:55:04.027Z,62.01
2022-11-14T02:57:31.584Z,62.03
2022-11-14T02:59:59.261Z,61.95
2022-11-14T03:02:26.964Z,61.79
2022-11-14T03:04:55.106Z,61.98
2022-11-14T03:07:22.751Z,61.87
2022-11-14T03:09:51.749Z,62.00
2022-11-14T03:12:19.563Z,61.93
2022-11-14T03:14:47.131Z,62.11
2022-11-14T03:17:14.765Z,62.06
2022-11-14T03:19:42.316Z,62.05
2022-11-14T03:22:09.916Z,62.24
2022-11-14T03:24:37.462Z,62.13
2022-11-14T03:27:06.480Z,61.97
2022-11-14T03:29:34.030Z,61.98
2022-11-14T03:32:01.603Z,61.98
2022-11-14T03:34:29.272Z,62.13
2022-11-14T03:36:56.882Z,62.00
2022-11-14T03:39:24.456Z,62.12
2022-11-14T03:41:52.028Z,62.00
2022-11-14T03:44:20.933Z,62.15
2022-11-14T03:46:48.476Z,62.08
2022-11-14T03:49:16.031Z,62.21
2022-11-14T03:51:43.598Z,62.00
2022-11-14T03:54:11.139Z,61.93
2022-11-14T03:56:38.751Z,62.00
2022-11-14T03:59:06.274Z,62.02
2022-11-14T04:01:35.147Z,61.89
2022-11-14T04:04:02.711Z,61.94
2022-11-14T04:06:30.301Z,62.00
2022-11-14T04:08:57.930Z,61.92
2022-11-14T04:11:25.546Z,61.72
2022-11-14T04:13:53.141Z,61.85
2022-11-14T04:16:20.731Z,62.01
2022-11-14T04:18:49.727Z,61.89
2022-11-14T04:21:17.314Z,61.91
2022-11-14T04:23:44.911Z,61.93
2022-11-14T04:26:12.497Z,61.78
2022-11-14T04:28:40.075Z,61.82
2022-11-14T04:31:07.679Z,61.80
2022-11-14T04:33:35.300Z,61.87
2022-11-14T04:36:04.242Z,61.78
2022-11-14T04:38:32.123Z,61.74
2022-11-14T04:41:00.170Z,61.72
2022-11-14T04:43:27.773Z,61.78
2022-11-14T04:45:55.332Z,61.68
2022-11-14T04:48:22.927Z,61.64
2022-11-14T04:50:50.498Z,61.74
2022-11-14T04:53:19.386Z,61.71
2022-11-14T04:55:47.972Z,61.66
2022-11-14T04:58:15.557Z,61.71
2022-11-14T05:00:43.106Z,61.73
2022-11-14T05:03:10.623Z,61.64
2022-11-14T05:05:41.909Z,61.57
2022-11-14T05:08:10.004Z,61.71
2022-11-14T05:10:38.959Z,61.64
2022-11-14T05:13:06.567Z,61.49
2022-11-14T05:15:34.158Z,61.82
2022-11-14T05:18:01.755Z,61.75
2022-11-14T05:20:29.468Z,62.01
2022-11-14T05:22:58.387Z,62.04
2022-11-14T05:25:26.019Z,62.19
2022-11-14T05:27:54.931Z,62.08
2022-11-14T05:30:22.626Z,61.99
2022-11-14T05:32:50.335Z,62.07
2022-11-14T05:35:17.892Z,62.08
2022-11-14T05:37:45.496Z,62.14
2022-11-14T05:40:13.381Z,62.04
2022-11-14T05:42:40.933Z,62.02
2022-11-14T05:45:11.252Z,61.87
2022-11-14T05:47:38.836Z,61.86
2022-11-14T05:50:07.514Z,61.99
2022-11-14T05:52:35.095Z,61.86
2022-11-14T05:55:02.643Z,61.94
2022-11-14T05:57:31.585Z,62.00
2022-11-14T06:00:19.481Z,61.98
2022-11-14T06:02:47.136Z,61.95
2022-11-14T06:05:14.748Z,61.97
2022-11-14T06:07:42.321Z,61.93
2022-11-14T06:10:10.129Z,62.08
2022-11-14T06:12:37.738Z,61.94
2022-11-14T06:15:05.632Z,61.93
2022-11-14T06:17:34.589Z,61.94
2022-11-14T06:20:02.227Z,61.85
2022-11-14T06:22:29.831Z,61.89
2022-11-14T06:24:57.390Z,61.92
2022-11-14T06:27:24.912Z,61.98
2022-11-14T06:29:52.528Z,61.89
2022-11-14T06:32:40.063Z,61.95
2022-11-14T06:35:08.985Z,61.77
2022-11-14T06:37:37.051Z,61.90
2022-11-14T06:40:05.272Z,61.76
2022-11-14T06:42:32.833Z,61.74
2022-11-14T06:45:00.410Z,61.90
2022-11-14T06:47:28.257Z,61.74
2022-11-14T06:49:57.364Z,61.74
2022-11-14T06:52:26.482Z,61.91
2022-11-14T06:54:54.036Z,61.70
2022-11-14T06:57:21.608Z,61.76
2022-11-14T06:59:49.164Z,61.72
2022-11-14T07:02:21.665Z,61.61
2022-11-14T07:04:49.622Z,61.76
2022-11-14T07:07:18.644Z,61.77
2022-11-14T07:09:46.290Z,61.69
2022-11-14T07:12:13.851Z,61.65
2022-11-14T07:14:41.412Z,61.61
2022-11-14T07:17:08.935Z,61.56
2022-11-14T07:19:36.519Z,61.51
2022-11-14T07:22:04.078Z,61.69
2022-11-14T07:24:33.028Z,61.63
2022-11-14T07:27:02.049Z,61.58
2022-11-14T07:29:29.636Z,61.63
2022-11-14T07:31:57.262Z,61.59
2022-11-14T07:34:24.841Z,61.50
2022-11-14T07:36:52.445Z,61.61
2022-11-14T07:39:20.016Z,61.62
2022-11-14T07:41:49.047Z,61.57
2022-11-14T07:44:16.590Z,61.53
2022-11-14T07:46:44.332Z,51.28
2022-11-14T07:49:11.933Z,50.57
2022-11-14T07:51:39.487Z,53.75
2022-11-14T07:54:07.068Z,55.07
2022-11-14T07:56:34.615Z,56.75
2022-11-14T07:59:03.655Z,56.86
2022-11-14T08:01:31.271Z,56.70
2022-11-14T08:03:58.891Z,57.08
2022-11-14T08:06:26.962Z,57.18
2022-11-14T08:08:54.532Z,57.26
2022-11-14T08:11:42.657Z,57.36
2022-11-14T08:14:11.876Z,57.37
2022-11-14T08:16:39.419Z,57.53
2022-11-14T08:19:07.232Z,57.61
2022-11-14T08:21:34.991Z,57.87
2022-11-14T08:24:02.670Z,57.96
2022-11-14T08:26:34.071Z,58.16
2022-11-14T08:29:02.129Z,58.29
2022-11-14T08:31:31.237Z,58.29
2022-11-14T08:33:58.783Z,58.27
2022-11-14T08:36:26.364Z,58.49
2022-11-14T08:38:56.295Z,58.34
2022-11-14T08:41:28.130Z,58.76
2022-11-14T08:43:55.673Z,58.81
2022-11-14T08:46:23.212Z,58.89
2022-11-14T08:48:52.160Z,58.81
2022-11-14T08:51:19.736Z,58.93
2022-11-14T08:53:47.327Z,59.03
2022-11-14T08:56:14.975Z,58.98
2022-11-14T08:58:42.664Z,58.95
2022-11-14T09:01:10.657Z,59.11
2022-11-14T09:03:38.280Z,58.90
2022-11-14T09:06:07.537Z,58.56
2022-11-14T09:08:35.137Z,58.63
2022-11-14T09:11:05.679Z,58.75
2022-11-14T09:13:33.776Z,58.90
2022-11-14T09:16:01.380Z,58.95
2022-11-14T09:18:29.311Z,59.02
2022-11-14T09:21:00.959Z,59.08
2022-11-14T09:23:30.424Z,59.10
2022-11-14T09:25:58.261Z,59.15
2022-11-14T09:28:25.840Z,59.32
2022-11-14T09:30:53.379Z,59.24
2022-11-14T09:33:20.956Z,59.49
2022-11-14T09:35:48.591Z,59.45
2022-11-14T09:38:16.160Z,59.47
2022-11-14T09:40:52.390Z,59.45
2022-11-14T09:43:29.796Z,59.58
2022-11-14T09:45:57.624Z,59.54
2022-11-14T09:48:27.340Z,59.66
2022-11-14T09:51:04.668Z,59.68
2022-11-14T09:53:33.129Z,59.11
2022-11-14T09:56:02.049Z,59.37
2022-11-14T09:58:29.772Z,59.23
2022-11-14T10:00:59.470Z,59.34
2022-11-14T10:03:32.325Z,59.39
2022-11-14T10:06:18.805Z,59.47
2022-11-14T10:08:51.001Z,59.34
2022-11-14T10:11:29.035Z,59.62
2022-11-14T10:14:26.355Z,59.52
2022-11-14T10:16:58.344Z,59.52
2022-11-14T10:19:30.725Z,59.59
2022-11-14T10:22:07.208Z,59.52
2022-11-14T10:24:46.600Z,59.51
2022-11-14T10:27:18.307Z,59.45
2022-11-14T10:29:56.831Z,59.39
2022-11-14T10:32:32.501Z,59.42
2022-11-14T10:35:02.339Z,59.45
2022-11-14T10:37:32.532Z,59.44
2022-11-14T10:40:04.300Z,59.45
2022-11-14T10:42:35.528Z,59.66
2022-11-14T10:45:04.391Z,59.73
2022-11-14T10:47:39.878Z,59.68
2022-11-14T10:50:15.874Z,59.61
2022-11-14T10:52:43.489Z,59.45
2022-11-14T10:55:14.880Z,59.88
2022-11-14T10:57:44.099Z,58.47
2022-11-14T11:00:22.929Z,58.35
2022-11-14T11:02:53.036Z,58.07
2022-11-14T11:05:22.072Z,57.98
2022-11-14T11:08:36.209Z,57.95
2022-11-14T11:11:14.725Z,57.90
2022-11-14T11:13:51.480Z,57.78
2022-11-14T11:16:21.163Z,57.81
2022-11-14T11:18:50.853Z,57.81
2022-11-14T11:21:19.442Z,57.79
2022-11-14T11:23:50.864Z,58.26
2022-11-14T11:26:23.519Z,58.03
2022-11-14T11:29:18.036Z,57.81
2022-11-14T11:31:53.046Z,57.65
2022-11-14T11:34:23.782Z,57.77
2022-11-14T11:36:52.717Z,58.01
2022-11-14T11:39:22.922Z,57.99
2022-11-14T11:44:41.559Z,58.31
2022-11-14T11:47:10.875Z,57.96
2022-11-14T11:49:41.848Z,57.73
2022-11-14T11:52:13.698Z,57.47
2022-11-14T11:54:48.920Z,57.22
2022-11-14T11:57:21.731Z,57.16
2022-11-14T11:59:53.241Z,57.01
2022-11-14T12:02:23.754Z,57.15
2022-11-14T12:04:52.058Z,57.18
2022-11-14T12:07:20.315Z,57.31
2022-11-14T12:10:09.746Z,57.28
2022-11-14T12:12:49.769Z,57.38
2022-11-14T12:15:20.588Z,57.22
2022-11-14T12:17:57.608Z,57.06
2022-11-14T12:20:46.825Z,57.07
2022-11-14T12:23:27.837Z,57.10
2022-11-14T12:26:01.945Z,56.67
2022-11-14T12:28:39.790Z,56.21
2022-11-14T12:31:11.945Z,56.24
2022-11-14T12:33:40.594Z,56.30
2022-11-14T12:36:10.454Z,56.53
2022-11-14T12:38:43.093Z,56.67
2022-11-14T12:41:11.194Z,56.77
2022-11-14T12:43:40.414Z,57.02
2022-11-14T12:46:11.442Z,56.95
2022-11-14T12:48:39.647Z,57.13
2022-11-14T12:51:30.063Z,57.13
2022-11-14T12:53:57.899Z,57.32
2022-11-14T12:56:48.710Z,57.49
2022-11-14T12:59:34.981Z,57.62
2022-11-14T13:02:29.599Z,57.79
2022-11-14T13:05:04.405Z,57.73
2022-11-14T13:07:38.248Z,57.73
2022-11-14T13:10:15.751Z,57.80
2022-11-14T13:13:01.167Z,57.59
2022-11-14T13:15:49.127Z,57.63
2022-11-14T13:18:41.127Z,58.20
2022-11-14T13:21:37.791Z,58.18
2022-11-14T13:24:08.647Z,57.84
2022-11-14T13:26:40.903Z,58.01
2022-11-14T13:29:08.580Z,58.06
2022-11-14T13:31:50.341Z,57.83
2022-11-14T13:34:41.657Z,58.11
2022-11-14T13:37:15.908Z,57.84
2022-11-14T13:39:45.763Z,58.04
2022-11-14T13:42:29.504Z,58.29
2022-11-14T13:45:18.946Z,58.29
2022-11-14T13:48:25.071Z,58.34
2022-11-14T13:50:56.415Z,58.39
2022-11-14T13:53:24.857Z,58.49
2022-11-14T13:55:56.744Z,58.43
2022-11-14T13:58:34.707Z,58.50
2022-11-14T14:01:09.825Z,58.42
2022-11-14T14:03:42.624Z,58.56
2022-11-14T14:06:21.203Z,58.60
2022-11-14T14:09:02.015Z,58.63
2022-11-14T14:11:55.196Z,58.71
2022-11-14T14:14:32.956Z,58.62
2022-11-14T14:17:03.416Z,58.81
2022-11-14T14:19:37.374Z,58.62
2022-11-14T14:22:08.360Z,58.47
2022-11-14T14:24:49.384Z,57.74
2022-11-14T14:27:18.360Z,57.12
2022-11-14T14:29:47.196Z,56.83
2022-11-14T14:32:15.365Z,56.44
2022-11-14T14:34:43.013Z,56.10
2022-11-14T14:37:27.163Z,55.85
2022-11-14T14:39:58.472Z,55.68
2022-11-14T14:42:29.579Z,55.54
2022-11-14T14:45:01.376Z,55.28
2022-11-14T14:47:34.944Z,55.24
2022-11-14T14:50:02.920Z,54.83
2022-11-14T14:52:32.776Z,54.99
2022-11-14T14:55:02.248Z,54.76
2022-11-14T14:57:30.334Z,54.59
2022-11-14T15:00:01.215Z,54.42
2022-11-14T15:02:28.905Z,54.24
2022-11-14T15:04:56.532Z,54.27
2022-11-14T15:07:25.056Z,54.41
2022-11-14T15:09:54.865Z,51.25
2022-11-14T15:12:22.803Z,46.06
2022-11-14T15:14:50.392Z,47.84
2022-11-14T15:17:17.949Z,50.02
2022-11-14T15:19:46.287Z,52.07
2022-11-14T15:22:26.700Z,52.42
2022-11-14T15:25:20.270Z,52.89
2022-11-14T15:27:49.298Z,53.20
2022-11-14T15:30:25.008Z,53.28
2022-11-14T15:32:53.719Z,53.38
2022-11-14T15:35:32.323Z,53.60
2022-11-14T15:38:36.912Z,54.01
2022-11-14T15:41:21.529Z,54.22
2022-11-14T15:43:50.781Z,54.21
2022-11-14T15:46:49.093Z,54.47
2022-11-14T15:49:23.720Z,54.65
2022-11-14T15:51:53.314Z,54.69
2022-11-14T15:54:30.805Z,54.06
2022-11-14T15:57:00.725Z,54.04
2022-11-14T15:59:28.961Z,54.37
2022-11-14T16:01:59.098Z,54.75
2022-11-14T16:04:29.494Z,54.02
2022-11-14T16:06:57.108Z,54.49
2022-11-14T16:09:24.716Z,54.45
2022-11-14T16:11:52.291Z,54.59
2022-11-14T16:14:21.167Z,54.93
2022-11-14T16:16:48.748Z,55.15
2022-11-14T16:19:16.692Z,55.70
2022-11-14T16:21:44.571Z,55.21
2022-11-14T16:24:14.823Z,55.38
2022-11-14T16:26:42.379Z,55.58
2022-11-14T16:29:10.049Z,55.73
2022-11-14T16:31:39.055Z,55.87
2022-11-14T16:34:06.752Z,55.80
2022-11-14T16:36:34.355Z,55.89
2022-11-14T16:39:02.968Z,55.78
2022-11-14T16:41:30.563Z,55.89
2022-11-14T16:43:58.248Z,55.97
2022-11-14T16:46:25.825Z,56.20
2022-11-14T16:48:55.265Z,56.82
2022-11-14T16:51:46.574Z,56.85
2022-11-14T16:54:11.972Z,57.10
2022-11-14T16:56:39.739Z,57.04
2022-11-14T16:59:07.527Z,57.11
2022-11-14T17:01:35.225Z,57.34
2022-11-14T17:04:04.305Z,57.18
2022-11-14T17:06:31.919Z,57.21
2022-11-14T17:09:00.254Z,57.55
2022-11-14T17:11:28.065Z,57.75
2022-11-14T17:13:55.655Z,57.92
2022-11-14T17:16:23.226Z,57.95
2022-11-14T17:18:53.914Z,57.99
2022-11-14T17:21:22.932Z,57.95
2022-11-14T17:23:54.675Z,57.93
2022-11-14T17:26:22.286Z,58.01
2022-11-14T17:28:49.959Z,58.08
2022-11-14T17:31:17.630Z,58.03
2022-11-14T17:33:45.313Z,58.13
2022-11-14T17:36:14.003Z,58.46
2022-11-14T17:38:42.950Z,58.15
2022-11-14T17:41:10.558Z,58.24
2022-11-14T17:43:39.944Z,58.57
2022-11-14T17:46:12.699Z,58.76
2022-11-14T17:48:42.977Z,58.99
2022-11-14T17:51:13.467Z,58.42
2022-11-14T17:53:41.300Z,58.62
2022-11-14T17:56:10.492Z,59.28
2022-11-14T17:58:38.076Z,59.27
2022-11-14T18:01:10.378Z,59.76
2022-11-14T18:03:37.944Z,59.80
2022-11-14T18:06:07.180Z,60.55
2022-11-14T18:08:34.807Z,60.58
2022-11-14T18:11:02.446Z,60.48
2022-11-14T18:13:31.508Z,60.64
2022-11-14T18:16:02.074Z,60.67
2022-11-14T18:18:31.369Z,60.40
2022-11-14T18:20:59.296Z,60.24
2022-11-14T18:23:26.900Z,60.22
2022-11-14T18:25:54.501Z,59.99
2022-11-14T18:28:22.699Z,59.64
2022-11-14T18:30:57.870Z,59.13
2022-11-14T18:33:25.502Z,58.71
2022-11-14T18:35:57.317Z,58.67
2022-11-14T18:38:24.890Z,58.45
2022-11-14T18:40:57.156Z,57.82
2022-11-14T18:43:25.148Z,57.92
2022-11-14T18:45:52.770Z,57.59
2022-11-14T18:48:21.735Z,57.62
2022-11-14T18:50:49.344Z,57.38
2022-11-14T18:53:16.909Z,57.22
2022-11-14T18:55:44.949Z,57.09
2022-11-14T18:58:14.373Z,56.69
2022-11-14T19:00:42.002Z,56.73
2022-11-14T19:03:10.895Z,56.48
2022-11-14T19:05:39.792Z,55.75
2022-11-14T19:08:07.668Z,56.00
2022-11-14T19:10:35.255Z,56.34
2022-11-14T19:13:02.828Z,55.35
2022-11-14T19:15:30.415Z,56.14
2022-11-14T19:17:58.049Z,55.86
2022-11-14T19:20:25.704Z,55.99
2022-11-14T19:22:54.619Z,55.60
2022-11-14T19:25:22.243Z,55.40
2022-11-14T19:27:51.559Z,54.71
2022-11-14T19:30:19.413Z,55.81
2022-11-14T19:32:47.083Z,56.10
2022-11-14T19:35:20.253Z,55.37
2022-11-14T19:37:48.298Z,55.90
2022-11-14T19:40:17.308Z,56.15
2022-11-14T19:42:44.943Z,56.52
2022-11-14T19:45:12.536Z,56.53
2022-11-14T19:47:40.179Z,56.50
2022-11-14T19:50:09.805Z,56.57
2022-11-14T19:52:37.594Z,56.90
2022-11-14T19:55:05.595Z,56.64
2022-11-14T19:57:34.556Z,57.11
2022-11-14T20:00:02.151Z,56.42
2022-11-14T20:02:29.784Z,56.80
2022-11-14T20:04:57.377Z,56.94
2022-11-14T20:07:25.109Z,56.94
2022-11-14T20:09:52.924Z,57.08
2022-11-14T20:12:20.606Z,57.24
2022-11-14T20:14:49.648Z,57.05
2022-11-14T20:17:17.274Z,57.21
2022-11-14T20:19:44.920Z,56.69
2022-11-14T20:22:12.559Z,57.04
2022-11-14T20:24:40.216Z,56.74
2022-11-14T20:27:07.891Z,56.98
2022-11-14T20:29:35.540Z,56.78
2022-11-14T20:32:04.551Z,56.77
2022-11-14T20:34:32.213Z,56.93
2022-11-14T20:37:15.144Z,56.92
2022-11-14T20:39:42.849Z,57.07
2022-11-14T20:42:10.478Z,57.54
2022-11-14T20:44:38.106Z,57.01
2022-11-14T20:47:10.820Z,56.72
2022-11-14T20:49:38.918Z,57.01
2022-11-14T20:52:06.646Z,57.06
2022-11-14T20:54:34.303Z,57.06
2022-11-14T20:57:01.960Z,56.99
2022-11-14T20:59:29.652Z,57.17
2022-11-14T21:01:57.320Z,57.26
2022-11-14T21:04:26.358Z,57.24
2022-11-14T21:06:53.999Z,57.29
2022-11-14T21:09:21.534Z,57.34
2022-11-14T21:11:49.107Z,57.35
2022-11-14T21:14:16.734Z,57.40
2022-11-14T21:16:44.401Z,57.40
2022-11-14T21:19:12.016Z,57.61
2022-11-14T21:21:40.963Z,57.69
2022-11-14T21:24:08.834Z,57.68
2022-11-14T21:26:38.091Z,57.61
2022-11-14T21:29:06.837Z,57.66
2022-11-14T21:31:35.083Z,57.72
2022-11-14T21:34:03.433Z,57.85
2022-11-14T21:36:44.990Z,57.74
2022-11-14T21:39:16.136Z,57.90
2022-11-14T21:41:44.350Z,58.02
2022-11-14T21:44:13.465Z,58.01
2022-11-14T21:46:41.202Z,58.15
2022-11-14T21:49:08.922Z,58.13
2022-11-14T21:51:36.520Z,58.14
2022-11-14T21:54:05.945Z,58.31
2022-11-14T21:56:35.747Z,58.19
2022-11-14T21:59:16.791Z,58.17
2022-11-14T22:02:02.906Z,58.26
2022-11-14T22:04:31.307Z,58.35
2022-11-14T22:06:59.123Z,58.39
2022-11-14T22:09:27.222Z,58.30
2022-11-14T22:11:56.475Z,58.29
2022-11-14T22:14:24.160Z,58.34
2022-11-14T22:16:51.744Z,58.45
2022-11-14T22:19:19.562Z,58.39
2022-11-14T22:21:47.108Z,58.35
2022-11-14T22:24:14.634Z,58.44
2022-11-14T22:26:42.217Z,58.53
2022-11-14T22:29:11.111Z,58.47
2022-11-14T22:31:38.698Z,58.30
2022-11-14T22:34:06.344Z,58.37
2022-11-14T22:36:34.308Z,58.51
2022-11-14T22:39:02.047Z,58.49
2022-11-14T22:41:32.664Z,58.69
2022-11-14T22:44:00.891Z,58.63
2022-11-14T22:46:29.948Z,58.57
2022-11-14T22:48:58.131Z,58.64
2022-11-14T22:51:26.570Z,58.72
2022-11-14T22:53:54.799Z,58.39
2022-11-14T22:56:23.231Z,58.56
2022-11-14T22:58:50.820Z,58.55
2022-11-14T23:01:19.742Z,58.74
2022-11-14T23:03:48.985Z,58.73
2022-11-14T23:06:17.525Z,58.80
2022-11-14T23:08:45.257Z,58.68
2022-11-14T23:11:14.502Z,58.81
2022-11-14T23:13:42.798Z,58.57
2022-11-14T23:16:10.690Z,58.64
2022-11-14T23:18:38.222Z,58.73
2022-11-14T23:21:07.973Z,58.95
2022-11-14T23:23:35.643Z,58.75
2022-11-14T23:26:04.078Z,58.88
2022-11-14T23:28:31.707Z,58.70
2022-11-14T23:30:59.439Z,58.67
2022-11-14T23:33:27.056Z,58.82
2022-11-14T23:35:54.685Z,58.67
2022-11-14T23:38:23.643Z,58.70
2022-11-14T23:40:54.400Z,58.48
2022-11-14T23:43:22.044Z,58.82
2022-11-14T23:45:49.694Z,58.71
2022-11-14T23:48:17.394Z,58.79
2022-11-14T23:50:45.458Z,58.93
2022-11-14T23:53:13.124Z,58.69
2022-11-14T23:55:42.048Z,58.73
2022-11-14T23:58:09.632Z,58.79
